sensor_id;sensor_type;location;lat;lon;timestamp;P1;durP1;ratioP1;P2;durP2;ratioP2
665;SDS011;315;48.738;9.126;2022-08-27T00:00:14;23.00;;;18.40;;
665;SDS011;315;48.738;9.126;2022-08-27T00:02:42;18.67;;;16.73;;
665;SDS011;315;48.738;9.126;2022-08-27T00:05:08;18.73;;;16.70;;
665;SDS011;315;48.738;9.126;2022-08-27T00:07:38;22.37;;;19.70;;
665;SDS011;315;48.738;9.126;2022-08-27T00:10:05;21.83;;;19.67;;
665;SDS011;315;48.738;9.126;2022-08-27T00:12:32;24.70;;;22.13;;
665;SDS011;315;48.738;9.126;2022-08-27T00:14:58;25.73;;;23.17;;
665;SDS011;315;48.738;9.126;2022-08-27T00:17:25;30.30;;;23.40;;
665;SDS011;315;48.738;9.126;2022-08-27T00:19:51;27.33;;;24.50;;
665;SDS011;315;48.738;9.126;2022-08-27T00:22:16;28.53;;;25.70;;
665;SDS011;315;48.738;9.126;2022-08-27T00:24:42;27.87;;;25.50;;
665;SDS011;315;48.738;9.126;2022-08-27T00:27:07;27.07;;;24.53;;
665;SDS011;315;48.738;9.126;2022-08-27T00:29:33;27.40;;;24.63;;
665;SDS011;315;48.738;9.126;2022-08-27T00:31:58;30.27;;;27.43;;
665;SDS011;315;48.738;9.126;2022-08-27T00:34:24;29.07;;;26.10;;
665;SDS011;315;48.738;9.126;2022-08-27T00:36:50;30.07;;;27.03;;
665;SDS011;315;48.738;9.126;2022-08-27T00:39:17;31.80;;;28.60;;
665;SDS011;315;48.738;9.126;2022-08-27T00:41:43;32.63;;;29.20;;
665;SDS011;315;48.738;9.126;2022-08-27T00:44:09;29.20;;;26.50;;
665;SDS011;315;48.738;9.126;2022-08-27T00:46:43;29.67;;;26.77;;
665;SDS011;315;48.738;9.126;2022-08-27T00:51:57;33.03;;;29.87;;
665;SDS011;315;48.738;9.126;2022-08-27T00:54:25;29.63;;;26.53;;
665;SDS011;315;48.738;9.126;2022-08-27T00:56:52;33.17;;;29.77;;
665;SDS011;315;48.738;9.126;2022-08-27T00:59:19;31.60;;;28.40;;
665;SDS011;315;48.738;9.126;2022-08-27T01:01:48;27.90;;;25.20;;
665;SDS011;315;48.738;9.126;2022-08-27T01:04:37;33.33;;;30.13;;
665;SDS011;315;48.738;9.126;2022-08-27T01:07:05;33.47;;;29.97;;
665;SDS011;315;48.738;9.126;2022-08-27T01:09:31;31.80;;;28.67;;
665;SDS011;315;48.738;9.126;2022-08-27T01:11:58;30.30;;;27.23;;
665;SDS011;315;48.738;9.126;2022-08-27T01:14:23;35.23;;;31.20;;
665;SDS011;315;48.738;9.126;2022-08-27T01:16:50;34.90;;;31.33;;
665;SDS011;315;48.738;9.126;2022-08-27T01:24:39;32.07;;;28.87;;
665;SDS011;315;48.738;9.126;2022-08-27T01:27:09;33.40;;;30.10;;
665;SDS011;315;48.738;9.126;2022-08-27T01:29:36;30.90;;;27.67;;
665;SDS011;315;48.738;9.126;2022-08-27T01:32:07;32.97;;;29.57;;
665;SDS011;315;48.738;9.126;2022-08-27T01:34:47;31.93;;;28.93;;
665;SDS011;315;48.738;9.126;2022-08-27T01:37:13;34.87;;;30.77;;
665;SDS011;315;48.738;9.126;2022-08-27T01:39:39;39.10;;;32.00;;
665;SDS011;315;48.738;9.126;2022-08-27T01:42:11;37.33;;;33.30;;
665;SDS011;315;48.738;9.126;2022-08-27T01:44:48;34.10;;;30.63;;
665;SDS011;315;48.738;9.126;2022-08-27T01:47:17;34.53;;;30.70;;
665;SDS011;315;48.738;9.126;2022-08-27T01:49:43;32.40;;;29.00;;
665;SDS011;315;48.738;9.126;2022-08-27T01:52:09;35.07;;;31.50;;
665;SDS011;315;48.738;9.126;2022-08-27T01:54:36;36.03;;;32.27;;
665;SDS011;315;48.738;9.126;2022-08-27T01:57:02;34.17;;;30.77;;
665;SDS011;315;48.738;9.126;2022-08-27T01:59:27;34.40;;;30.80;;
665;SDS011;315;48.738;9.126;2022-08-27T02:01:53;35.17;;;31.43;;
665;SDS011;315;48.738;9.126;2022-08-27T02:04:19;34.37;;;30.67;;
665;SDS011;315;48.738;9.126;2022-08-27T02:06:46;32.03;;;28.93;;
665;SDS011;315;48.738;9.126;2022-08-27T02:09:11;33.73;;;30.03;;
665;SDS011;315;48.738;9.126;2022-08-27T02:11:37;32.90;;;29.67;;
665;SDS011;315;48.738;9.126;2022-08-27T02:14:03;34.00;;;30.50;;
665;SDS011;315;48.738;9.126;2022-08-27T02:16:28;33.30;;;29.90;;
665;SDS011;315;48.738;9.126;2022-08-27T02:18:56;34.73;;;31.37;;
665;SDS011;315;48.738;9.126;2022-08-27T02:21:23;36.93;;;31.97;;
665;SDS011;315;48.738;9.126;2022-08-27T02:23:49;32.50;;;29.30;;
665;SDS011;315;48.738;9.126;2022-08-27T02:26:15;36.23;;;32.53;;
665;SDS011;315;48.738;9.126;2022-08-27T02:28:41;36.43;;;31.00;;
665;SDS011;315;48.738;9.126;2022-08-27T02:31:06;32.90;;;29.50;;
665;SDS011;315;48.738;9.126;2022-08-27T02:33:32;33.60;;;30.20;;
665;SDS011;315;48.738;9.126;2022-08-27T02:35:58;34.00;;;30.70;;
665;SDS011;315;48.738;9.126;2022-08-27T02:38:23;36.53;;;32.93;;
665;SDS011;315;48.738;9.126;2022-08-27T02:40:49;35.70;;;31.97;;
665;SDS011;315;48.738;9.126;2022-08-27T02:43:15;37.63;;;33.90;;
665;SDS011;315;48.738;9.126;2022-08-27T02:45:40;35.00;;;31.57;;
665;SDS011;315;48.738;9.126;2022-08-27T02:48:06;35.53;;;31.90;;
665;SDS011;315;48.738;9.126;2022-08-27T02:50:32;35.50;;;31.77;;
665;SDS011;315;48.738;9.126;2022-08-27T02:52:59;34.97;;;31.37;;
665;SDS011;315;48.738;9.126;2022-08-27T02:55:26;35.10;;;31.40;;
665;SDS011;315;48.738;9.126;2022-08-27T02:57:52;35.33;;;31.77;;
665;SDS011;315;48.738;9.126;2022-08-27T03:00:18;37.23;;;33.20;;
665;SDS011;315;48.738;9.126;2022-08-27T03:02:45;37.50;;;33.60;;
665;SDS011;315;48.738;9.126;2022-08-27T03:05:12;35.00;;;31.60;;
665;SDS011;315;48.738;9.126;2022-08-27T03:07:39;37.23;;;33.47;;
665;SDS011;315;48.738;9.126;2022-08-27T03:10:05;36.60;;;33.07;;
665;SDS011;315;48.738;9.126;2022-08-27T03:12:33;35.50;;;31.80;;
665;SDS011;315;48.738;9.126;2022-08-27T03:15:00;34.13;;;30.53;;
665;SDS011;315;48.738;9.126;2022-08-27T03:17:27;34.13;;;30.83;;
665;SDS011;315;48.738;9.126;2022-08-27T03:20:12;33.43;;;30.00;;
665;SDS011;315;48.738;9.126;2022-08-27T03:22:37;29.67;;;26.70;;
665;SDS011;315;48.738;9.126;2022-08-27T03:25:04;31.33;;;28.10;;
665;SDS011;315;48.738;9.126;2022-08-27T03:27:30;29.83;;;26.70;;
665;SDS011;315;48.738;9.126;2022-08-27T03:29:56;31.83;;;28.37;;
665;SDS011;315;48.738;9.126;2022-08-27T03:32:21;30.93;;;28.03;;
665;SDS011;315;48.738;9.126;2022-08-27T03:34:48;29.10;;;26.30;;
665;SDS011;315;48.738;9.126;2022-08-27T03:37:13;32.27;;;29.07;;
665;SDS011;315;48.738;9.126;2022-08-27T03:39:39;29.50;;;26.60;;
665;SDS011;315;48.738;9.126;2022-08-27T03:42:04;25.03;;;22.53;;
665;SDS011;315;48.738;9.126;2022-08-27T03:44:30;23.97;;;21.77;;
665;SDS011;315;48.738;9.126;2022-08-27T03:46:56;25.90;;;23.17;;
665;SDS011;315;48.738;9.126;2022-08-27T03:49:22;26.83;;;23.90;;
665;SDS011;315;48.738;9.126;2022-08-27T03:51:48;24.67;;;22.37;;
665;SDS011;315;48.738;9.126;2022-08-27T03:54:15;26.87;;;24.47;;
665;SDS011;315;48.738;9.126;2022-08-27T03:56:41;26.90;;;24.03;;
665;SDS011;315;48.738;9.126;2022-08-27T03:59:07;28.17;;;25.37;;
665;SDS011;315;48.738;9.126;2022-08-27T04:01:32;26.10;;;23.40;;
665;SDS011;315;48.738;9.126;2022-08-27T04:03:58;29.67;;;26.57;;
665;SDS011;315;48.738;9.126;2022-08-27T04:06:24;27.67;;;24.43;;
665;SDS011;315;48.738;9.126;2022-08-27T04:08:49;30.33;;;27.27;;
665;SDS011;315;48.738;9.126;2022-08-27T04:11:15;30.10;;;27.30;;
665;SDS011;315;48.738;9.126;2022-08-27T04:13:41;32.13;;;28.83;;
665;SDS011;315;48.738;9.126;2022-08-27T04:16:07;30.03;;;27.13;;
665;SDS011;315;48.738;9.126;2022-08-27T04:18:33;29.40;;;26.67;;
665;SDS011;315;48.738;9.126;2022-08-27T04:21:05;36.20;;;32.57;;
665;SDS011;315;48.738;9.126;2022-08-27T04:23:32;35.97;;;32.57;;
665;SDS011;315;48.738;9.126;2022-08-27T04:25:58;35.17;;;31.77;;
665;SDS011;315;48.738;9.126;2022-08-27T04:28:24;33.97;;;30.97;;
665;SDS011;315;48.738;9.126;2022-08-27T04:30:50;32.83;;;29.67;;
665;SDS011;315;48.738;9.126;2022-08-27T04:33:15;34.20;;;31.03;;
665;SDS011;315;48.738;9.126;2022-08-27T04:35:41;33.57;;;30.07;;
665;SDS011;315;48.738;9.126;2022-08-27T04:38:06;34.30;;;31.10;;
665;SDS011;315;48.738;9.126;2022-08-27T04:40:32;38.90;;;34.67;;
665;SDS011;315;48.738;9.126;2022-08-27T04:43:18;37.03;;;33.20;;
665;SDS011;315;48.738;9.126;2022-08-27T04:45:45;38.50;;;34.73;;
665;SDS011;315;48.738;9.126;2022-08-27T04:48:12;40.43;;;36.23;;
665;SDS011;315;48.738;9.126;2022-08-27T04:50:40;37.03;;;33.33;;
665;SDS011;315;48.738;9.126;2022-08-27T04:53:07;38.90;;;35.07;;
665;SDS011;315;48.738;9.126;2022-08-27T04:55:39;42.90;;;38.47;;
665;SDS011;315;48.738;9.126;2022-08-27T04:58:11;44.00;;;39.57;;
665;SDS011;315;48.738;9.126;2022-08-27T05:00:44;44.07;;;39.97;;
665;SDS011;315;48.738;9.126;2022-08-27T05:03:12;50.50;;;45.00;;
665;SDS011;315;48.738;9.126;2022-08-27T05:05:39;43.83;;;39.23;;
665;SDS011;315;48.738;9.126;2022-08-27T05:08:05;48.77;;;43.87;;
665;SDS011;315;48.738;9.126;2022-08-27T05:10:38;46.27;;;41.63;;
665;SDS011;315;48.738;9.126;2022-08-27T05:13:05;46.50;;;41.73;;
665;SDS011;315;48.738;9.126;2022-08-27T05:15:30;48.43;;;43.27;;
665;SDS011;315;48.738;9.126;2022-08-27T05:17:56;49.47;;;44.17;;
665;SDS011;315;48.738;9.126;2022-08-27T05:20:24;48.70;;;42.50;;
665;SDS011;315;48.738;9.126;2022-08-27T05:22:51;49.00;;;43.80;;
665;SDS011;315;48.738;9.126;2022-08-27T05:25:16;51.13;;;45.80;;
665;SDS011;315;48.738;9.126;2022-08-27T05:27:42;51.00;;;45.80;;
665;SDS011;315;48.738;9.126;2022-08-27T05:30:08;49.57;;;44.33;;
665;SDS011;315;48.738;9.126;2022-08-27T05:32:34;51.97;;;46.47;;
665;SDS011;315;48.738;9.126;2022-08-27T05:34:59;52.80;;;45.43;;
665;SDS011;315;48.738;9.126;2022-08-27T05:37:25;53.20;;;47.60;;
665;SDS011;315;48.738;9.126;2022-08-27T05:39:51;50.20;;;44.90;;
665;SDS011;315;48.738;9.126;2022-08-27T05:42:16;51.37;;;45.03;;
665;SDS011;315;48.738;9.126;2022-08-27T05:44:43;54.20;;;48.30;;
665;SDS011;315;48.738;9.126;2022-08-27T05:47:09;54.37;;;48.50;;
665;SDS011;315;48.738;9.126;2022-08-27T05:49:34;53.37;;;47.73;;
665;SDS011;315;48.738;9.126;2022-08-27T05:52:00;48.27;;;42.77;;
665;SDS011;315;48.738;9.126;2022-08-27T05:54:25;53.13;;;47.40;;
665;SDS011;315;48.738;9.126;2022-08-27T05:56:51;52.00;;;46.67;;
665;SDS011;315;48.738;9.126;2022-08-27T05:59:17;54.87;;;48.60;;
665;SDS011;315;48.738;9.126;2022-08-27T06:02:02;50.87;;;45.20;;
665;SDS011;315;48.738;9.126;2022-08-27T06:04:28;50.60;;;44.80;;
665;SDS011;315;48.738;9.126;2022-08-27T06:06:54;51.93;;;46.63;;
665;SDS011;315;48.738;9.126;2022-08-27T06:09:21;52.13;;;46.53;;
665;SDS011;315;48.738;9.126;2022-08-27T06:11:48;55.07;;;49.03;;
665;SDS011;315;48.738;9.126;2022-08-27T06:14:14;60.23;;;53.57;;
665;SDS011;315;48.738;9.126;2022-08-27T06:16:40;56.27;;;50.40;;
665;SDS011;315;48.738;9.126;2022-08-27T06:19:06;54.77;;;49.00;;
665;SDS011;315;48.738;9.126;2022-08-27T06:21:35;54.03;;;48.20;;
665;SDS011;315;48.738;9.126;2022-08-27T06:24:01;52.80;;;47.23;;
665;SDS011;315;48.738;9.126;2022-08-27T06:26:27;50.47;;;44.90;;
665;SDS011;315;48.738;9.126;2022-08-27T06:28:52;49.37;;;44.33;;
665;SDS011;315;48.738;9.126;2022-08-27T06:31:20;51.07;;;45.77;;
665;SDS011;315;48.738;9.126;2022-08-27T06:33:48;51.27;;;45.80;;
665;SDS011;315;48.738;9.126;2022-08-27T06:36:16;47.53;;;42.60;;
665;SDS011;315;48.738;9.126;2022-08-27T06:38:44;50.40;;;45.13;;
665;SDS011;315;48.738;9.126;2022-08-27T06:41:11;46.07;;;41.07;;
665;SDS011;315;48.738;9.126;2022-08-27T06:43:39;49.10;;;43.93;;
665;SDS011;315;48.738;9.126;2022-08-27T06:46:07;45.57;;;40.93;;
665;SDS011;315;48.738;9.126;2022-08-27T06:48:34;48.20;;;43.40;;
665;SDS011;315;48.738;9.126;2022-08-27T06:51:06;45.20;;;40.47;;
665;SDS011;315;48.738;9.126;2022-08-27T06:53:32;45.70;;;41.27;;
665;SDS011;315;48.738;9.126;2022-08-27T06:55:58;45.50;;;40.40;;
665;SDS011;315;48.738;9.126;2022-08-27T06:58:24;43.17;;;38.67;;
665;SDS011;315;48.738;9.126;2022-08-27T07:00:50;45.97;;;39.97;;
665;SDS011;315;48.738;9.126;2022-08-27T07:03:16;42.23;;;37.93;;
665;SDS011;315;48.738;9.126;2022-08-27T07:05:41;41.60;;;37.50;;
665;SDS011;315;48.738;9.126;2022-08-27T07:08:07;38.47;;;34.50;;
665;SDS011;315;48.738;9.126;2022-08-27T07:10:34;37.70;;;34.13;;
665;SDS011;315;48.738;9.126;2022-08-27T07:13:00;38.80;;;34.97;;
665;SDS011;315;48.738;9.126;2022-08-27T07:15:26;37.47;;;33.87;;
665;SDS011;315;48.738;9.126;2022-08-27T07:17:52;36.00;;;32.20;;
665;SDS011;315;48.738;9.126;2022-08-27T07:20:18;35.73;;;32.33;;
665;SDS011;315;48.738;9.126;2022-08-27T07:22:44;39.23;;;35.20;;
665;SDS011;315;48.738;9.126;2022-08-27T07:25:12;36.87;;;32.97;;
665;SDS011;315;48.738;9.126;2022-08-27T07:27:40;36.37;;;32.77;;
665;SDS011;315;48.738;9.126;2022-08-27T07:30:07;36.57;;;33.03;;
665;SDS011;315;48.738;9.126;2022-08-27T07:32:36;38.70;;;33.57;;
665;SDS011;315;48.738;9.126;2022-08-27T07:35:01;38.97;;;34.80;;
665;SDS011;315;48.738;9.126;2022-08-27T07:37:27;39.63;;;35.40;;
665;SDS011;315;48.738;9.126;2022-08-27T07:39:53;37.70;;;33.90;;
665;SDS011;315;48.738;9.126;2022-08-27T07:42:18;37.70;;;34.10;;
665;SDS011;315;48.738;9.126;2022-08-27T07:45:02;36.33;;;32.40;;
665;SDS011;315;48.738;9.126;2022-08-27T07:47:29;38.50;;;34.20;;
665;SDS011;315;48.738;9.126;2022-08-27T07:49:56;40.50;;;36.70;;
665;SDS011;315;48.738;9.126;2022-08-27T07:52:22;39.17;;;35.30;;
665;SDS011;315;48.738;9.126;2022-08-27T07:54:48;38.50;;;34.40;;
665;SDS011;315;48.738;9.126;2022-08-27T07:57:15;38.20;;;34.33;;
665;SDS011;315;48.738;9.126;2022-08-27T07:59:40;40.40;;;35.97;;
665;SDS011;315;48.738;9.126;2022-08-27T08:02:06;38.40;;;34.80;;
665;SDS011;315;48.738;9.126;2022-08-27T08:04:31;38.80;;;35.10;;
665;SDS011;315;48.738;9.126;2022-08-27T08:06:57;39.50;;;35.50;;
665;SDS011;315;48.738;9.126;2022-08-27T08:09:22;40.80;;;32.17;;
665;SDS011;315;48.738;9.126;2022-08-27T08:11:49;38.97;;;35.07;;
665;SDS011;315;48.738;9.126;2022-08-27T08:14:16;41.70;;;35.50;;
665;SDS011;315;48.738;9.126;2022-08-27T08:16:42;39.93;;;35.87;;
665;SDS011;315;48.738;9.126;2022-08-27T08:19:07;41.23;;;37.30;;
665;SDS011;315;48.738;9.126;2022-08-27T08:21:33;41.73;;;37.30;;
665;SDS011;315;48.738;9.126;2022-08-27T08:23:59;42.73;;;38.53;;
665;SDS011;315;48.738;9.126;2022-08-27T08:26:26;39.83;;;35.93;;
665;SDS011;315;48.738;9.126;2022-08-27T08:28:53;42.53;;;37.93;;
665;SDS011;315;48.738;9.126;2022-08-27T08:31:19;42.50;;;38.10;;
665;SDS011;315;48.738;9.126;2022-08-27T08:33:45;41.70;;;35.83;;
665;SDS011;315;48.738;9.126;2022-08-27T08:36:14;43.57;;;39.57;;
665;SDS011;315;48.738;9.126;2022-08-27T08:38:41;41.80;;;37.80;;
665;SDS011;315;48.738;9.126;2022-08-27T08:43:52;46.53;;;41.27;;
665;SDS011;315;48.738;9.126;2022-08-27T08:46:22;45.17;;;40.27;;
665;SDS011;315;48.738;9.126;2022-08-27T08:49:06;44.70;;;40.17;;
665;SDS011;315;48.738;9.126;2022-08-27T08:51:41;42.33;;;37.87;;
665;SDS011;315;48.738;9.126;2022-08-27T08:54:09;43.10;;;38.30;;
665;SDS011;315;48.738;9.126;2022-08-27T09:02:07;47.27;;;42.53;;
665;SDS011;315;48.738;9.126;2022-08-27T09:04:35;48.50;;;39.63;;
665;SDS011;315;48.738;9.126;2022-08-27T09:07:16;49.00;;;43.47;;
665;SDS011;315;48.738;9.126;2022-08-27T09:13:20;46.80;;;40.20;;
665;SDS011;315;48.738;9.126;2022-08-27T09:15:49;45.00;;;40.40;;
665;SDS011;315;48.738;9.126;2022-08-27T09:18:19;43.93;;;38.80;;
665;SDS011;315;48.738;9.126;2022-08-27T09:20:45;45.33;;;40.67;;
665;SDS011;315;48.738;9.126;2022-08-27T09:25:56;42.50;;;37.90;;
665;SDS011;315;48.738;9.126;2022-08-27T09:28:23;39.97;;;35.80;;
665;SDS011;315;48.738;9.126;2022-08-27T09:31:16;41.67;;;36.90;;
665;SDS011;315;48.738;9.126;2022-08-27T09:33:43;42.53;;;37.27;;
665;SDS011;315;48.738;9.126;2022-08-27T09:36:10;41.50;;;36.57;;
665;SDS011;315;48.738;9.126;2022-08-27T09:38:40;38.53;;;34.73;;
665;SDS011;315;48.738;9.126;2022-08-27T09:41:21;38.10;;;34.00;;
665;SDS011;315;48.738;9.126;2022-08-27T09:43:59;39.87;;;35.73;;
665;SDS011;315;48.738;9.126;2022-08-27T09:46:26;32.37;;;29.33;;
665;SDS011;315;48.738;9.126;2022-08-27T09:48:52;35.53;;;31.87;;
665;SDS011;315;48.738;9.126;2022-08-27T09:51:20;30.70;;;27.57;;
665;SDS011;315;48.738;9.126;2022-08-27T09:53:51;32.17;;;25.83;;
665;SDS011;315;48.738;9.126;2022-08-27T09:56:25;26.67;;;23.93;;
665;SDS011;315;48.738;9.126;2022-08-27T09:59:12;23.43;;;21.33;;
665;SDS011;315;48.738;9.126;2022-08-27T10:01:50;23.63;;;21.40;;
665;SDS011;315;48.738;9.126;2022-08-27T10:04:26;18.63;;;17.00;;
665;SDS011;315;48.738;9.126;2022-08-27T10:15:07;15.40;;;14.00;;
665;SDS011;315;48.738;9.126;2022-08-27T10:17:42;16.90;;;15.60;;
665;SDS011;315;48.738;9.126;2022-08-27T10:29:57;15.80;;;14.37;;
665;SDS011;315;48.738;9.126;2022-08-27T10:32:06;15.90;;;14.60;;
665;SDS011;315;48.738;9.126;2022-08-27T10:45:24;17.03;;;15.63;;
665;SDS011;315;48.738;9.126;2022-08-27T10:48:05;17.07;;;15.57;;
665;SDS011;315;48.738;9.126;2022-08-27T10:56:29;18.03;;;16.47;;
665;SDS011;315;48.738;9.126;2022-08-27T11:02:03;23.90;;;16.00;;
665;SDS011;315;48.738;9.126;2022-08-27T11:04:37;18.97;;;17.30;;
665;SDS011;315;48.738;9.126;2022-08-27T11:07:14;19.50;;;17.67;;
665;SDS011;315;48.738;9.126;2022-08-27T11:09:50;20.43;;;18.60;;
665;SDS011;315;48.738;9.126;2022-08-27T11:12:21;19.40;;;17.60;;
665;SDS011;315;48.738;9.126;2022-08-27T11:14:54;18.00;;;16.33;;
665;SDS011;315;48.738;9.126;2022-08-27T11:17:44;18.80;;;17.20;;
665;SDS011;315;48.738;9.126;2022-08-27T11:20:18;20.10;;;18.30;;
665;SDS011;315;48.738;9.126;2022-08-27T11:25:17;21.13;;;19.23;;
665;SDS011;315;48.738;9.126;2022-08-27T11:27:48;22.00;;;19.87;;
665;SDS011;315;48.738;9.126;2022-08-27T11:30:28;22.17;;;19.83;;
665;SDS011;315;48.738;9.126;2022-08-27T11:33:14;22.70;;;20.80;;
665;SDS011;315;48.738;9.126;2022-08-27T11:36:05;21.93;;;20.10;;
665;SDS011;315;48.738;9.126;2022-08-27T11:39:01;20.40;;;18.60;;
665;SDS011;315;48.738;9.126;2022-08-27T11:44:25;21.30;;;19.30;;
665;SDS011;315;48.738;9.126;2022-08-27T11:46:56;22.00;;;20.17;;
665;SDS011;315;48.738;9.126;2022-08-27T11:49:42;19.87;;;17.87;;
665;SDS011;315;48.738;9.126;2022-08-27T11:52:10;23.20;;;21.17;;
665;SDS011;315;48.738;9.126;2022-08-27T11:54:48;22.33;;;20.33;;
665;SDS011;315;48.738;9.126;2022-08-27T11:57:33;23.40;;;21.37;;
665;SDS011;315;48.738;9.126;2022-08-27T12:00:13;29.70;;;27.00;;
665;SDS011;315;48.738;9.126;2022-08-27T12:02:44;23.73;;;21.30;;
665;SDS011;315;48.738;9.126;2022-08-27T12:05:44;26.23;;;23.83;;
665;SDS011;315;48.738;9.126;2022-08-27T12:14:11;25.83;;;23.43;;
665;SDS011;315;48.738;9.126;2022-08-27T12:25:26;27.23;;;24.63;;
665;SDS011;315;48.738;9.126;2022-08-27T12:27:56;28.07;;;25.17;;
665;SDS011;315;48.738;9.126;2022-08-27T12:33:04;24.97;;;22.97;;
665;SDS011;315;48.738;9.126;2022-08-27T12:35:51;25.83;;;23.33;;
665;SDS011;315;48.738;9.126;2022-08-27T12:40:59;25.67;;;23.00;;
665;SDS011;315;48.738;9.126;2022-08-27T12:43:30;25.80;;;23.20;;
665;SDS011;315;48.738;9.126;2022-08-27T12:45:59;26.60;;;24.20;;
665;SDS011;315;48.738;9.126;2022-08-27T12:48:30;26.53;;;24.00;;
665;SDS011;315;48.738;9.126;2022-08-27T12:51:29;26.30;;;23.90;;
665;SDS011;315;48.738;9.126;2022-08-27T12:54:10;26.07;;;23.97;;
665;SDS011;315;48.738;9.126;2022-08-27T12:57:14;27.87;;;25.27;;
665;SDS011;315;48.738;9.126;2022-08-27T12:59:51;27.13;;;24.77;;
665;SDS011;315;48.738;9.126;2022-08-27T13:02:36;25.70;;;23.50;;
665;SDS011;315;48.738;9.126;2022-08-27T13:05:11;28.37;;;25.87;;
665;SDS011;315;48.738;9.126;2022-08-27T13:07:43;27.50;;;24.90;;
665;SDS011;315;48.738;9.126;2022-08-27T13:10:18;28.00;;;25.60;;
665;SDS011;315;48.738;9.126;2022-08-27T13:12:44;28.60;;;25.60;;
665;SDS011;315;48.738;9.126;2022-08-27T13:15:11;28.23;;;25.93;;
665;SDS011;315;48.738;9.126;2022-08-27T13:17:39;26.87;;;24.13;;
665;SDS011;315;48.738;9.126;2022-08-27T13:20:14;25.93;;;23.50;;
665;SDS011;315;48.738;9.126;2022-08-27T13:22:44;25.90;;;23.60;;
665;SDS011;315;48.738;9.126;2022-08-27T13:25:24;26.23;;;23.77;;
665;SDS011;315;48.738;9.126;2022-08-27T13:28:11;26.93;;;24.23;;
665;SDS011;315;48.738;9.126;2022-08-27T13:30:43;25.60;;;23.43;;
665;SDS011;315;48.738;9.126;2022-08-27T13:33:12;24.17;;;22.30;;
665;SDS011;315;48.738;9.126;2022-08-27T13:35:43;24.00;;;21.90;;
665;SDS011;315;48.738;9.126;2022-08-27T13:38:10;23.83;;;21.67;;
665;SDS011;315;48.738;9.126;2022-08-27T13:40:37;24.40;;;22.07;;
665;SDS011;315;48.738;9.126;2022-08-27T13:46:03;22.83;;;20.77;;
665;SDS011;315;48.738;9.126;2022-08-27T13:48:32;23.73;;;21.83;;
665;SDS011;315;48.738;9.126;2022-08-27T13:50:59;22.00;;;20.00;;
665;SDS011;315;48.738;9.126;2022-08-27T13:53:28;22.50;;;20.43;;
665;SDS011;315;48.738;9.126;2022-08-27T13:56:25;21.70;;;19.57;;
665;SDS011;315;48.738;9.126;2022-08-27T13:59:12;22.20;;;20.07;;
665;SDS011;315;48.738;9.126;2022-08-27T14:01:41;21.73;;;19.70;;
665;SDS011;315;48.738;9.126;2022-08-27T14:04:34;22.90;;;20.90;;
665;SDS011;315;48.738;9.126;2022-08-27T14:07:05;22.23;;;20.27;;
665;SDS011;315;48.738;9.126;2022-08-27T14:09:33;23.10;;;21.10;;
665;SDS011;315;48.738;9.126;2022-08-27T14:12:00;23.90;;;21.43;;
665;SDS011;315;48.738;9.126;2022-08-27T14:14:27;24.33;;;21.73;;
665;SDS011;315;48.738;9.126;2022-08-27T14:16:57;25.60;;;23.10;;
665;SDS011;315;48.738;9.126;2022-08-27T14:19:27;24.07;;;21.53;;
665;SDS011;315;48.738;9.126;2022-08-27T14:21:55;21.60;;;19.70;;
665;SDS011;315;48.738;9.126;2022-08-27T14:24:21;21.03;;;19.20;;
665;SDS011;315;48.738;9.126;2022-08-27T14:26:48;21.73;;;19.90;;
665;SDS011;315;48.738;9.126;2022-08-27T14:29:19;20.27;;;18.57;;
665;SDS011;315;48.738;9.126;2022-08-27T14:31:44;19.97;;;18.27;;
665;SDS011;315;48.738;9.126;2022-08-27T14:34:11;20.30;;;18.37;;
665;SDS011;315;48.738;9.126;2022-08-27T14:36:37;21.17;;;19.27;;
665;SDS011;315;48.738;9.126;2022-08-27T14:39:04;20.83;;;19.23;;
665;SDS011;315;48.738;9.126;2022-08-27T14:41:31;21.00;;;18.80;;
665;SDS011;315;48.738;9.126;2022-08-27T14:43:57;20.83;;;18.87;;
665;SDS011;315;48.738;9.126;2022-08-27T14:46:27;22.60;;;20.77;;
665;SDS011;315;48.738;9.126;2022-08-27T14:48:55;21.80;;;19.63;;
665;SDS011;315;48.738;9.126;2022-08-27T14:51:24;20.27;;;18.67;;
665;SDS011;315;48.738;9.126;2022-08-27T14:53:52;22.10;;;20.00;;
665;SDS011;315;48.738;9.126;2022-08-27T14:56:19;21.77;;;19.30;;
665;SDS011;315;48.738;9.126;2022-08-27T14:58:46;21.83;;;19.93;;
665;SDS011;315;48.738;9.126;2022-08-27T15:01:12;21.37;;;19.47;;
665;SDS011;315;48.738;9.126;2022-08-27T15:03:38;22.40;;;20.40;;
665;SDS011;315;48.738;9.126;2022-08-27T15:06:14;24.87;;;22.83;;
665;SDS011;315;48.738;9.126;2022-08-27T15:08:42;27.40;;;24.90;;
665;SDS011;315;48.738;9.126;2022-08-27T15:11:11;25.83;;;23.63;;
665;SDS011;315;48.738;9.126;2022-08-27T15:13:43;24.00;;;21.90;;
665;SDS011;315;48.738;9.126;2022-08-27T15:16:11;22.93;;;20.93;;
665;SDS011;315;48.738;9.126;2022-08-27T15:18:38;25.07;;;22.57;;
665;SDS011;315;48.738;9.126;2022-08-27T15:21:04;23.70;;;21.70;;
665;SDS011;315;48.738;9.126;2022-08-27T15:23:30;25.87;;;23.70;;
665;SDS011;315;48.738;9.126;2022-08-27T15:25:55;24.23;;;22.07;;
665;SDS011;315;48.738;9.126;2022-08-27T15:28:21;24.27;;;22.03;;
665;SDS011;315;48.738;9.126;2022-08-27T15:30:46;24.30;;;22.00;;
665;SDS011;315;48.738;9.126;2022-08-27T15:33:12;24.10;;;21.90;;
665;SDS011;315;48.738;9.126;2022-08-27T15:35:37;23.90;;;21.97;;
665;SDS011;315;48.738;9.126;2022-08-27T15:38:03;24.53;;;22.33;;
665;SDS011;315;48.738;9.126;2022-08-27T15:40:30;23.30;;;21.13;;
665;SDS011;315;48.738;9.126;2022-08-27T15:43:00;23.07;;;20.87;;
665;SDS011;315;48.738;9.126;2022-08-27T15:45:29;21.23;;;19.30;;
665;SDS011;315;48.738;9.126;2022-08-27T15:47:56;22.20;;;20.00;;
665;SDS011;315;48.738;9.126;2022-08-27T15:50:22;24.07;;;21.97;;
665;SDS011;315;48.738;9.126;2022-08-27T15:52:49;22.23;;;20.53;;
665;SDS011;315;48.738;9.126;2022-08-27T15:55:20;22.97;;;20.87;;
665;SDS011;315;48.738;9.126;2022-08-27T15:57:48;24.00;;;21.67;;
665;SDS011;315;48.738;9.126;2022-08-27T16:00:13;22.03;;;20.23;;
665;SDS011;315;48.738;9.126;2022-08-27T16:02:40;24.43;;;22.13;;
665;SDS011;315;48.738;9.126;2022-08-27T16:05:07;22.57;;;20.47;;
665;SDS011;315;48.738;9.126;2022-08-27T16:07:34;23.27;;;20.37;;
665;SDS011;315;48.738;9.126;2022-08-27T16:10:01;21.80;;;20.03;;
665;SDS011;315;48.738;9.126;2022-08-27T16:12:28;22.70;;;20.67;;
665;SDS011;315;48.738;9.126;2022-08-27T16:14:54;24.70;;;22.50;;
665;SDS011;315;48.738;9.126;2022-08-27T16:17:20;25.77;;;23.07;;
665;SDS011;315;48.738;9.126;2022-08-27T16:19:46;23.83;;;21.83;;
665;SDS011;315;48.738;9.126;2022-08-27T16:22:12;24.07;;;21.90;;
665;SDS011;315;48.738;9.126;2022-08-27T16:24:38;24.90;;;22.90;;
665;SDS011;315;48.738;9.126;2022-08-27T16:27:04;25.50;;;23.07;;
665;SDS011;315;48.738;9.126;2022-08-27T16:29:29;27.83;;;25.20;;
665;SDS011;315;48.738;9.126;2022-08-27T16:31:55;24.53;;;22.50;;
665;SDS011;315;48.738;9.126;2022-08-27T16:34:21;26.60;;;24.30;;
665;SDS011;315;48.738;9.126;2022-08-27T16:36:50;28.00;;;25.00;;
665;SDS011;315;48.738;9.126;2022-08-27T16:39:16;28.60;;;25.80;;
665;SDS011;315;48.738;9.126;2022-08-27T16:41:41;27.20;;;24.80;;
665;SDS011;315;48.738;9.126;2022-08-27T16:44:07;28.40;;;25.90;;
665;SDS011;315;48.738;9.126;2022-08-27T16:46:33;29.40;;;26.87;;
665;SDS011;315;48.738;9.126;2022-08-27T16:48:59;27.47;;;24.87;;
665;SDS011;315;48.738;9.126;2022-08-27T16:51:43;29.80;;;27.17;;
665;SDS011;315;48.738;9.126;2022-08-27T16:54:09;32.93;;;29.87;;